Time;durP1;ratioP1;P1;durP2;ratioP2;P2;SDS_P1;SDS_P2;PMS_P1;PMS_P2;Temp;Humidity;BMP_temperature;BMP_pressure;BME280_temperature;BME280_humidity;BME280_pressure;Samples;Min_cycle;Max_cycle;Signal;HPM_P1;HPM_P2
2023/03/12 00:01:18;;;;;;;7.80;5.90;;;0.50;99.90;;;;;;5077733;28;20522;-66
2023/03/12 00:03:46;;;;;;;7.63;6.10;;;0.50;99.90;;;;;;5077542;28;20793;-66
2023/03/12 00:06:14;;;;;;;6.47;4.50;;;0.60;99.90;;;;;;5077482;28;20461;-66
2023/03/12 00:08:41;;;;;;;9.17;4.80;;;0.60;99.90;;;;;;5076162;28;20461;-65
2023/03/12 00:11:11;;;;;;;7.53;4.13;;;0.60;99.90;;;;;;5077934;28;20469;-66
2023/03/12 00:13:39;;;;;;;8.90;4.57;;;0.70;99.90;;;;;;5077676;28;20820;-65
2023/03/12 00:16:08;;;;;;;6.00;4.37;;;0.70;99.90;;;;;;5077454;28;20823;-65
2023/03/12 00:18:35;;;;;;;8.33;4.57;;;0.70;99.90;;;;;;5077386;28;20940;-66
2023/03/12 00:21:02;;;;;;;5.03;4.10;;;0.70;99.90;;;;;;5077762;28;20496;-65
2023/03/12 00:23:29;;;;;;;6.10;4.20;;;0.80;99.90;;;;;;5078499;28;20461;-65
2023/03/12 00:26:01;;;;;;;5.23;4.70;;;0.80;99.90;;;;;;5078245;28;20468;-65
2023/03/12 00:28:29;;;;;;;7.80;5.60;;;0.80;99.90;;;;;;5078217;28;20488;-65
2023/03/12 00:30:57;;;;;;;9.53;5.33;;;0.90;99.90;;;;;;5077165;28;20457;-65
2023/03/12 00:33:24;;;;;;;6.17;4.27;;;0.90;99.90;;;;;;5078530;28;20565;-65
2023/03/12 00:35:52;;;;;;;10.33;5.70;;;0.90;99.90;;;;;;5077860;28;20469;-65
2023/03/12 00:38:19;;;;;;;6.47;4.37;;;0.90;99.90;;;;;;5078328;28;20468;-65
2023/03/12 00:40:46;;;;;;;6.33;4.47;;;0.90;99.90;;;;;;5077884;28;20489;-66
2023/03/12 00:43:14;;;;;;;6.50;4.33;;;0.90;99.90;;;;;;5076918;28;20469;-66
2023/03/12 00:45:43;;;;;;;6.37;3.60;;;0.90;99.90;;;;;;5077210;28;20556;-65
2023/03/12 00:48:10;;;;;;;6.97;3.87;;;0.90;99.90;;;;;;5077037;28;20872;-66
2023/03/12 00:50:37;;;;;;;7.60;4.73;;;0.90;99.90;;;;;;5075224;28;20476;-65
2023/03/12 00:53:04;;;;;;;5.93;3.77;;;1.00;99.90;;;;;;5075942;28;20468;-65
2023/03/12 00:55:31;;;;;;;5.70;4.00;;;1.00;99.90;;;;;;5076523;28;20761;-66
2023/03/12 00:57:58;;;;;;;6.20;4.57;;;1.10;99.90;;;;;;5077055;28;20465;-65
2023/03/12 01:00:25;;;;;;;9.67;4.03;;;1.10;99.90;;;;;;5076624;28;20942;-64
2023/03/12 01:02:53;;;;;;;12.93;4.43;;;1.00;99.90;;;;;;5076069;28;20517;-65
2023/03/12 01:05:21;;;;;;;6.50;4.30;;;1.00;99.90;;;;;;5077061;28;20458;-65
2023/03/12 01:07:48;;;;;;;7.17;3.90;;;1.00;99.90;;;;;;5076585;28;20465;-64
2023/03/12 01:10:16;;;;;;;7.00;3.73;;;1.10;99.90;;;;;;5076869;28;20458;-64
2023/03/12 01:12:43;;;;;;;5.77;3.70;;;1.10;99.90;;;;;;5076466;28;20920;-64
2023/03/12 01:15:14;;;;;;;6.40;4.03;;;1.10;99.90;;;;;;5076616;28;20461;-64
2023/03/12 01:17:41;;;;;;;5.17;3.40;;;1.10;99.90;;;;;;5076682;28;20465;-63
2023/03/12 01:20:11;;;;;;;7.73;4.50;;;1.20;99.90;;;;;;5078181;28;20496;-63
2023/03/12 01:22:39;;;;;;;6.13;3.97;;;1.20;99.90;;;;;;5079951;28;20761;-63
2023/03/12 01:25:07;;;;;;;8.93;4.77;;;1.30;99.90;;;;;;5080998;28;20465;-63
2023/03/12 01:27:34;;;;;;;6.60;4.60;;;1.30;99.90;;;;;;5080932;28;20891;-63
2023/03/12 01:30:01;;;;;;;5.60;3.67;;;1.30;99.90;;;;;;5081019;28;20464;-63
2023/03/12 01:32:28;;;;;;;6.20;3.80;;;1.30;99.90;;;;;;5080736;28;20468;-64
2023/03/12 01:34:56;;;;;;;6.33;3.73;;;1.30;99.90;;;;;;5080622;28;20768;-63
2023/03/12 01:37:24;;;;;;;7.70;4.30;;;1.30;99.90;;;;;;5080352;28;20535;-64
2023/03/12 01:39:51;;;;;;;6.57;4.33;;;1.30;99.90;;;;;;5080022;28;20620;-63
2023/03/12 01:42:19;;;;;;;8.57;4.77;;;1.30;99.90;;;;;;5080290;28;20534;-63
2023/03/12 01:44:51;;;;;;;6.20;3.50;;;1.40;99.90;;;;;;5080382;28;20794;-63
2023/03/12 01:47:18;;;;;;;5.60;3.73;;;1.30;99.90;;;;;;5080324;28;20460;-63
2023/03/12 01:49:46;;;;;;;9.83;4.40;;;1.30;99.90;;;;;;5079523;28;20461;-64
2023/03/12 01:52:16;;;;;;;6.90;4.00;;;1.40;99.90;;;;;;5079051;28;20878;-63
2023/03/12 01:54:47;;;;;;;5.93;3.50;;;1.40;99.90;;;;;;5079672;28;20465;-64
2023/03/12 01:57:18;;;;;;;4.47;3.07;;;1.50;99.90;;;;;;5081160;28;20885;-63
2023/03/12 01:59:50;;;;;;;6.57;3.20;;;1.50;99.90;;;;;;5079951;28;20546;-64
2023/03/12 02:02:18;;;;;;;4.80;2.80;;;1.60;99.90;;;;;;5080765;28;20487;-63
2023/03/12 02:04:46;;;;;;;6.30;3.57;;;1.60;99.90;;;;;;5080077;28;20556;-64
2023/03/12 02:07:16;;;;;;;6.07;3.43;;;1.50;99.90;;;;;;5080388;28;20493;-63
2023/03/12 02:09:48;;;;;;;6.97;5.00;;;1.60;99.90;;;;;;5080176;28;20467;-64
2023/03/12 02:12:16;;;;;;;4.27;3.63;;;1.60;99.90;;;;;;5080061;28;20501;-63
2023/03/12 02:14:43;;;;;;;4.80;3.50;;;1.60;99.90;;;;;;5079895;28;20889;-63
2023/03/12 02:17:11;;;;;;;9.67;3.57;;;1.60;99.90;;;;;;5080076;28;20871;-63
2023/03/12 02:19:46;;;;;;;7.40;3.40;;;1.60;99.90;;;;;;5079166;28;20500;-63
2023/03/12 02:22:14;;;;;;;7.63;3.67;;;1.70;99.90;;;;;;5080117;28;20436;-63
2023/03/12 02:24:48;;;;;;;4.90;3.07;;;1.60;99.90;;;;;;5079444;28;20497;-63
2023/03/12 02:27:17;;;;;;;4.47;3.10;;;1.60;99.90;;;;;;5079983;28;20959;-63
2023/03/12 02:29:45;;;;;;;4.37;3.40;;;1.70;99.90;;;;;;5079148;28;20461;-63
2023/03/12 02:32:20;;;;;;;9.20;3.63;;;1.70;99.90;;;;;;5078233;28;20440;-63
2023/03/12 02:34:49;;;;;;;5.43;3.40;;;1.70;99.90;;;;;;5079271;28;20464;-63
2023/03/12 02:37:17;;;;;;;4.77;3.70;;;1.60;99.90;;;;;;5079617;28;20513;-63
2023/03/12 02:39:50;;;;;;;5.30;3.20;;;1.60;99.90;;;;;;5078789;28;20465;-63
2023/03/12 02:42:19;;;;;;;5.43;2.97;;;1.70;99.90;;;;;;5079364;28;20461;-63
2023/03/12 02:44:46;;;;;;;7.97;3.53;;;1.70;99.90;;;;;;5079660;28;20527;-63
2023/03/12 02:47:13;;;;;;;8.70;3.53;;;1.70;99.90;;;;;;5079123;28;20511;-63
2023/03/12 02:49:40;;;;;;;4.07;2.80;;;1.70;99.90;;;;;;5079314;28;20461;-63
2023/03/12 02:52:07;;;;;;;4.83;3.47;;;1.70;99.90;;;;;;5078042;28;20484;-63
2023/03/12 02:54:34;;;;;;;6.80;3.43;;;1.70;99.90;;;;;;5079144;28;20465;-63
2023/03/12 02:57:01;;;;;;;6.53;3.50;;;1.70;99.90;;;;;;5078207;28;20461;-63
2023/03/12 02:59:29;;;;;;;6.73;3.43;;;1.70;99.90;;;;;;5078987;28;20523;-63
2023/03/12 03:01:59;;;;;;;6.70;3.67;;;1.70;99.90;;;;;;5079244;28;20489;-63
2023/03/12 03:04:27;;;;;;;5.30;3.27;;;1.80;99.90;;;;;;5079258;28;20466;-63
2023/03/12 03:06:54;;;;;;;4.57;2.90;;;1.80;99.90;;;;;;5078610;28;20461;-64
2023/03/12 03:09:21;;;;;;;6.23;4.10;;;1.70;99.90;;;;;;5079243;28;20469;-63
2023/03/12 03:11:49;;;;;;;7.37;3.63;;;1.80;99.90;;;;;;5078909;28;20500;-63
2023/03/12 03:14:16;;;;;;;4.47;3.00;;;1.80;99.90;;;;;;5079039;28;20465;-63
2023/03/12 03:16:45;;;;;;;4.13;3.10;;;1.80;99.90;;;;;;5078707;28;20465;-63
2023/03/12 03:19:12;;;;;;;5.40;3.73;;;1.80;99.90;;;;;;5077445;28;20953;-64
2023/03/12 03:21:39;;;;;;;4.73;3.00;;;1.80;99.90;;;;;;5078516;28;20763;-63
2023/03/12 03:24:06;;;;;;;3.60;2.90;;;1.80;99.90;;;;;;5078511;28;20468;-63
2023/03/12 03:26:33;;;;;;;4.53;3.10;;;1.80;99.90;;;;;;5078761;28;20486;-63
2023/03/12 03:29:00;;;;;;;5.83;3.60;;;1.80;99.90;;;;;;5078412;28;20466;-63
2023/03/12 03:31:27;;;;;;;12.37;2.77;;;1.80;99.90;;;;;;5078623;28;20457;-63
2023/03/12 03:33:56;;;;;;;5.23;3.60;;;1.70;99.90;;;;;;5078519;28;20932;-63
2023/03/12 03:36:23;;;;;;;7.00;3.73;;;1.80;99.90;;;;;;5078848;28;20465;-64
2023/03/12 03:38:50;;;;;;;10.57;3.27;;;1.80;99.90;;;;;;5077679;28;20481;-63
2023/03/12 03:41:17;;;;;;;6.87;3.27;;;1.80;99.90;;;;;;5078021;28;20473;-63
2023/03/12 03:43:44;;;;;;;5.00;3.17;;;1.70;99.90;;;;;;5077889;28;20457;-63
2023/03/12 03:46:13;;;;;;;6.80;3.20;;;1.80;99.90;;;;;;5077910;28;20461;-63
2023/03/12 03:48:41;;;;;;;7.77;3.80;;;1.70;99.90;;;;;;5077971;28;20465;-63
2023/03/12 03:51:10;;;;;;;7.60;3.23;;;1.70;99.90;;;;;;5076483;28;20519;-63
2023/03/12 03:53:37;;;;;;;5.47;3.20;;;1.70;99.90;;;;;;5077829;28;20522;-63
2023/03/12 03:56:08;;;;;;;6.27;3.60;;;1.70;99.90;;;;;;5078049;28;20523;-63
2023/03/12 03:58:35;;;;;;;4.73;3.30;;;1.60;99.90;;;;;;5077540;28;20466;-63
2023/03/12 04:01:02;;;;;;;5.90;3.30;;;1.70;99.90;;;;;;5078029;28;20502;-63
2023/03/12 04:03:29;;;;;;;4.20;3.10;;;1.70;99.90;;;;;;5077968;28;20484;-62
2023/03/12 04:05:58;;;;;;;4.87;2.90;;;1.80;99.90;;;;;;5065582;28;20451;-63
2023/03/12 04:08:27;;;;;;;5.30;3.30;;;1.80;99.90;;;;;;5077055;28;20462;-63
2023/03/12 04:10:55;;;;;;;6.83;3.60;;;1.70;99.90;;;;;;5078105;28;20465;-63
2023/03/12 04:13:22;;;;;;;5.13;3.77;;;1.80;99.90;;;;;;5077913;28;20469;-63
2023/03/12 04:15:50;;;;;;;6.47;3.33;;;1.80;99.90;;;;;;5076718;28;20465;-63
2023/03/12 04:18:18;;;;;;;5.50;3.43;;;1.80;99.90;;;;;;5072191;28;20497;-63
2023/03/12 04:20:45;;;;;;;5.17;3.50;;;1.80;99.90;;;;;;5077506;28;20489;-63
2023/03/12 04:23:12;;;;;;;7.63;3.93;;;1.90;99.90;;;;;;5077774;28;20465;-64
2023/03/12 04:25:41;;;;;;;4.00;2.90;;;1.90;99.90;;;;;;5076714;28;20469;-63
2023/03/12 04:28:08;;;;;;;2.97;2.67;;;1.80;99.90;;;;;;5077461;28;20915;-63
2023/03/12 04:30:37;;;;;;;5.40;3.07;;;1.80;99.90;;;;;;5077374;28;20530;-65
2023/03/12 04:33:04;;;;;;;3.80;2.87;;;1.80;99.90;;;;;;5077051;28;20764;-63
2023/03/12 04:35:41;;;;;;;5.37;3.37;;;1.80;99.90;;;;;;5077043;28;20822;-64
2023/03/12 04:38:20;;;;;;;8.63;3.90;;;1.80;99.90;;;;;;5076260;28;20436;-65
2023/03/12 04:40:58;;;;;;;10.50;3.43;;;1.90;99.90;;;;;;5075316;28;20485;-65
2023/03/12 04:43:40;;;;;;;6.30;3.10;;;1.90;99.90;;;;;;5075484;28;20940;-65
2023/03/12 04:46:16;;;;;;;4.67;2.77;;;1.90;99.90;;;;;;5075781;28;20460;-65
2023/03/12 04:48:53;;;;;;;3.80;3.10;;;1.90;99.90;;;;;;5076376;28;20483;-65
2023/03/12 04:51:30;;;;;;;3.87;3.27;;;1.90;99.90;;;;;;5075816;28;20489;-64
2023/03/12 04:53:57;;;;;;;4.60;3.10;;;1.90;99.90;;;;;;5076626;28;20583;-64
2023/03/12 04:56:26;;;;;;;3.83;2.70;;;2.00;99.90;;;;;;5080218;28;20465;-63
2023/03/12 04:58:53;;;;;;;7.10;3.53;;;2.00;99.90;;;;;;5080700;28;20468;-63
2023/03/12 05:01:24;;;;;;;4.53;2.97;;;2.00;99.90;;;;;;5080765;28;20489;-63
2023/03/12 05:03:52;;;;;;;7.30;4.00;;;2.00;99.90;;;;;;5081223;28;20461;-63
2023/03/12 05:06:19;;;;;;;8.73;3.40;;;2.00;99.90;;;;;;5081458;28;20870;-63
2023/03/12 05:08:46;;;;;;;5.33;3.77;;;1.90;99.90;;;;;;5081180;28;20481;-63
2023/03/12 05:11:14;;;;;;;4.50;3.00;;;2.00;99.90;;;;;;5080817;28;20470;-62
2023/03/12 05:13:42;;;;;;;6.13;3.53;;;2.00;99.90;;;;;;5080826;28;20480;-62
2023/03/12 05:16:10;;;;;;;8.43;3.00;;;2.00;99.90;;;;;;5081560;28;20472;-63
2023/03/12 05:18:38;;;;;;;4.40;2.57;;;2.00;99.90;;;;;;5080806;28;20493;-63
2023/03/12 05:21:07;;;;;;;6.37;3.60;;;2.00;99.90;;;;;;5080569;28;20948;-62
2023/03/12 05:23:34;;;;;;;3.37;3.03;;;2.00;99.90;;;;;;5080300;28;20457;-62
2023/03/12 05:26:02;;;;;;;6.60;2.90;;;2.00;99.90;;;;;;5080677;28;20511;-61
2023/03/12 05:28:29;;;;;;;6.43;3.13;;;2.00;99.90;;;;;;5080834;28;20472;-63
2023/03/12 05:30:59;;;;;;;4.13;2.87;;;2.00;99.90;;;;;;5080202;28;20453;-63
2023/03/12 05:33:27;;;;;;;6.10;3.10;;;1.90;99.90;;;;;;5080936;28;20466;-63
2023/03/12 05:35:54;;;;;;;7.00;2.90;;;1.90;99.90;;;;;;5080838;28;20461;-63
2023/03/12 05:38:22;;;;;;;4.73;3.57;;;1.90;99.90;;;;;;5080690;28;20526;-63
2023/03/12 05:40:53;;;;;;;6.70;3.40;;;1.90;99.90;;;;;;5080080;28;20486;-63
2023/03/12 05:43:20;;;;;;;4.53;3.17;;;1.80;99.90;;;;;;5080293;28;20808;-62
2023/03/12 05:45:47;;;;;;;6.90;3.43;;;1.90;99.90;;;;;;5079922;28;20461;-63
2023/03/12 05:48:16;;;;;;;8.37;3.27;;;1.90;99.90;;;;;;5080136;28;20461;-63
2023/03/12 05:50:43;;;;;;;5.07;3.13;;;1.90;99.90;;;;;;5080167;28;20874;-63
2023/03/12 05:53:11;;;;;;;5.43;3.40;;;1.90;99.90;;;;;;5080488;28;20526;-62
2023/03/12 05:55:39;;;;;;;4.20;2.70;;;2.00;99.90;;;;;;5080214;28;20460;-62
2023/03/12 05:58:07;;;;;;;6.80;3.60;;;1.90;99.90;;;;;;5079466;28;20470;-63
2023/03/12 06:00:36;;;;;;;6.30;3.17;;;1.90;99.90;;;;;;5079045;28;20469;-63
2023/03/12 06:03:04;;;;;;;4.40;3.10;;;1.80;99.90;;;;;;5080275;28;20807;-63
2023/03/12 06:05:34;;;;;;;6.10;3.13;;;1.90;99.90;;;;;;5080218;28;21155;-63
2023/03/12 06:08:01;;;;;;;7.20;3.70;;;1.90;99.90;;;;;;5078234;28;20461;-63
2023/03/12 06:10:29;;;;;;;6.63;3.20;;;1.80;99.90;;;;;;5079520;28;20465;-63
2023/03/12 06:12:56;;;;;;;5.03;3.20;;;1.90;99.90;;;;;;5078753;28;20460;-63
2023/03/12 06:15:23;;;;;;;9.80;3.03;;;2.00;99.90;;;;;;5079495;28;20461;-63
2023/03/12 06:17:50;;;;;;;4.80;3.10;;;1.90;99.90;;;;;;5078976;28;20466;-62
2023/03/12 06:20:17;;;;;;;9.23;3.47;;;1.90;99.90;;;;;;5078361;28;20523;-63
2023/03/12 06:22:46;;;;;;;4.63;3.27;;;1.90;99.90;;;;;;5079691;28;20489;-63
2023/03/12 06:25:13;;;;;;;5.60;3.90;;;1.90;99.90;;;;;;5079549;28;20759;-62
2023/03/12 06:27:40;;;;;;;4.67;3.13;;;1.90;99.90;;;;;;5079422;28;20471;-63
2023/03/12 06:30:08;;;;;;;4.83;2.70;;;2.00;99.90;;;;;;5079250;28;20461;-63
2023/03/12 06:32:35;;;;;;;6.07;3.37;;;2.00;99.90;;;;;;5079574;28;20746;-63
2023/03/12 06:35:03;;;;;;;4.60;3.33;;;2.00;99.90;;;;;;5079304;28;20453;-64
2023/03/12 06:37:30;;;;;;;5.53;3.37;;;1.90;99.90;;;;;;5079285;28;20469;-63
2023/03/12 06:39:59;;;;;;;5.27;3.50;;;1.90;99.90;;;;;;5079140;28;20461;-64
2023/03/12 06:42:26;;;;;;;6.93;3.73;;;1.90;99.90;;;;;;5079402;28;20834;-63
2023/03/12 06:44:53;;;;;;;8.07;3.90;;;1.90;99.90;;;;;;5079613;28;20461;-63
2023/03/12 06:47:21;;;;;;;4.67;3.60;;;1.90;99.90;;;;;;5079639;28;20466;-63
2023/03/12 06:49:48;;;;;;;5.27;4.50;;;2.00;99.90;;;;;;5078195;28;20556;-64
2023/03/12 06:52:15;;;;;;;6.73;3.77;;;2.00;99.90;;;;;;5078486;28;20461;-63
2023/03/12 06:54:42;;;;;;;4.03;3.63;;;1.90;99.90;;;;;;5077508;28;20461;-63
2023/03/12 06:57:10;;;;;;;8.10;5.00;;;1.90;99.90;;;;;;5079108;28;20453;-63
2023/03/12 06:59:38;;;;;;;7.93;4.90;;;1.90;99.90;;;;;;5078345;28;20471;-63
2023/03/12 07:02:05;;;;;;;7.80;4.53;;;1.90;99.90;;;;;;5078435;28;20927;-63
2023/03/12 07:04:32;;;;;;;7.00;4.33;;;1.90;99.90;;;;;;5077763;28;20465;-63
2023/03/12 07:06:59;;;;;;;10.83;4.73;;;1.90;99.90;;;;;;5077718;28;20488;-63
2023/03/12 07:09:26;;;;;;;8.67;5.13;;;1.80;99.90;;;;;;5079080;28;20473;-64
2023/03/12 07:11:53;;;;;;;9.27;4.63;;;1.90;1.00;;;;;;5079023;28;20473;-64
2023/03/12 07:14:22;;;;;;;8.10;5.23;;;1.90;1.00;;;;;;5078403;28;20767;-63
2023/03/12 07:16:49;;;;;;;12.57;5.43;;;1.90;1.00;;;;;;5078357;28;20461;-63
2023/03/12 07:19:18;;;;;;;10.60;5.23;;;1.90;1.00;;;;;;5077870;28;20482;-63
2023/03/12 07:21:45;;;;;;;7.00;4.90;;;1.90;1.00;;;;;;5077994;28;20500;-63
2023/03/12 07:24:12;;;;;;;10.50;5.13;;;2.00;1.00;;;;;;5077865;28;20470;-63
2023/03/12 07:26:39;;;;;;;5.97;5.10;;;2.00;1.00;;;;;;5077411;28;20454;-63
2023/03/12 07:29:06;;;;;;;6.77;4.73;;;2.00;1.00;;;;;;5078854;28;20749;-64
2023/03/12 07:31:34;;;;;;;6.33;4.60;;;2.10;1.00;;;;;;5078607;28;20457;-63
2023/03/12 07:34:04;;;;;;;6.83;5.83;;;2.20;1.00;;;;;;5078311;28;20466;-63
2023/03/12 07:36:32;;;;;;;12.13;4.93;;;2.20;1.00;;;;;;5077551;28;20508;-63
2023/03/12 07:38:59;;;;;;;10.20;5.53;;;2.30;1.00;;;;;;5078314;28;20461;-63
2023/03/12 07:41:26;;;;;;;8.60;5.67;;;2.40;1.00;;;;;;5076894;28;20861;-63
2023/03/12 07:43:53;;;;;;;5.97;4.83;;;2.50;1.00;;;;;;5076311;28;20454;-63
2023/03/12 07:46:20;;;;;;;9.87;5.40;;;2.50;1.00;;;;;;5075446;28;20475;-63
2023/03/12 07:48:48;;;;;;;10.37;5.73;;;2.60;1.00;;;;;;5076374;28;20535;-63
2023/03/12 07:51:15;;;;;;;9.47;5.77;;;2.50;1.00;;;;;;5075842;28;20742;-63
2023/03/12 07:53:42;;;;;;;8.17;4.70;;;2.60;1.00;;;;;;5075654;28;20436;-63
2023/03/12 07:56:10;;;;;;;9.53;6.63;;;2.60;1.00;;;;;;5076284;28;20791;-63
2023/03/12 07:58:37;;;;;;;7.87;5.40;;;2.60;1.00;;;;;;5075946;28;20485;-63
2023/03/12 08:01:05;;;;;;;9.47;4.90;;;2.60;1.00;;;;;;5076818;28;20462;-65
2023/03/12 08:03:32;;;;;;;6.60;5.50;;;2.50;1.00;;;;;;5077637;28;20485;-64
2023/03/12 08:06:02;;;;;;;7.57;5.53;;;2.50;1.00;;;;;;5077344;28;20483;-64
2023/03/12 08:08:31;;;;;;;6.70;5.63;;;2.50;1.00;;;;;;5077608;28;20940;-64
2023/03/12 08:10:58;;;;;;;6.40;5.60;;;2.50;1.00;;;;;;5077932;28;20532;-63
2023/03/12 08:13:25;;;;;;;8.10;5.27;;;2.50;1.00;;;;;;5076399;28;20910;-63
2023/03/12 08:15:53;;;;;;;9.80;5.00;;;2.50;1.00;;;;;;5076331;28;20480;-63
2023/03/12 08:18:21;;;;;;;6.10;4.87;;;2.60;1.00;;;;;;5074321;28;20783;-64
2023/03/12 08:20:51;;;;;;;7.87;5.60;;;2.60;1.00;;;;;;5059614;28;20469;-64
2023/03/12 08:23:20;;;;;;;7.43;5.33;;;2.60;1.00;;;;;;5075750;28;20520;-64
2023/03/12 08:25:49;;;;;;;7.37;6.17;;;2.60;1.00;;;;;;5072554;28;20461;-64
2023/03/12 08:28:17;;;;;;;9.70;6.97;;;2.60;1.00;;;;;;5072925;28;20770;-64
2023/03/12 08:30:47;;;;;;;12.93;6.57;;;2.60;1.00;;;;;;5072623;28;20819;-64
2023/03/12 08:33:14;;;;;;;9.43;6.50;;;2.60;1.00;;;;;;5076709;28;20469;-64
2023/03/12 08:35:41;;;;;;;9.30;7.10;;;2.60;1.00;;;;;;5075648;28;20457;-66
2023/03/12 08:38:08;;;;;;;8.67;6.17;;;2.70;1.00;;;;;;5071004;28;20476;-63
2023/03/12 08:40:37;;;;;;;8.33;5.70;;;2.60;1.00;;;;;;5075636;28;20894;-64
2023/03/12 08:43:06;;;;;;;8.60;5.87;;;2.60;1.00;;;;;;5075061;28;20496;-64
2023/03/12 08:45:35;;;;;;;7.37;5.70;;;2.70;1.00;;;;;;5075064;28;20536;-64
2023/03/12 08:48:02;;;;;;;9.10;5.87;;;2.70;1.00;;;;;;5074995;28;20924;-63
2023/03/12 08:50:30;;;;;;;7.97;6.10;;;2.80;1.00;;;;;;5075061;28;20473;-63
2023/03/12 08:52:58;;;;;;;9.20;5.50;;;2.80;1.00;;;;;;5075602;28;20531;-63
2023/03/12 08:55:26;;;;;;;7.90;5.90;;;2.80;1.00;;;;;;5076769;28;20886;-65
2023/03/12 08:57:55;;;;;;;7.50;5.80;;;2.80;1.00;;;;;;5074819;28;20466;-64
2023/03/12 09:00:23;;;;;;;7.40;5.77;;;2.90;1.00;;;;;;5074429;28;20465;-64
2023/03/12 09:02:52;;;;;;;10.23;5.77;;;3.00;1.00;;;;;;5070971;28;20481;-64
2023/03/12 09:05:19;;;;;;;7.60;5.07;;;3.00;1.00;;;;;;5073791;28;20492;-65
2023/03/12 09:07:46;;;;;;;7.10;5.13;;;3.00;1.00;;;;;;5075021;28;20473;-64
2023/03/12 09:10:13;;;;;;;8.13;5.80;;;3.10;31.10;;;;;;5074976;28;20460;-64
2023/03/12 09:12:40;;;;;;;7.47;6.67;;;3.10;91.90;;;;;;5075546;28;20748;-64
2023/03/12 09:15:10;;;;;;;6.07;5.17;;;3.20;99.90;;;;;;5075232;28;20454;-65
2023/03/12 09:17:37;;;;;;;9.33;5.00;;;3.20;99.90;;;;;;5074840;28;20488;-64
2023/03/12 09:20:07;;;;;;;5.50;5.00;;;3.40;99.90;;;;;;5074579;28;20462;-65
2023/03/12 09:22:35;;;;;;;8.73;5.33;;;3.40;99.90;;;;;;5072608;28;20452;-64
2023/03/12 09:25:02;;;;;;;8.43;5.60;;;3.50;99.90;;;;;;5075232;28;20514;-65
2023/03/12 09:27:30;;;;;;;7.47;5.60;;;3.50;99.90;;;;;;5074374;28;20465;-65
2023/03/12 09:29:57;;;;;;;6.57;5.33;;;3.50;99.90;;;;;;5073753;28;20492;-65
2023/03/12 09:32:26;;;;;;;6.50;4.90;;;3.50;99.90;;;;;;5074925;28;20465;-66
2023/03/12 09:34:53;;;;;;;8.80;5.60;;;3.50;99.90;;;;;;5074108;28;20768;-64
2023/03/12 09:37:20;;;;;;;9.90;6.00;;;3.60;99.90;;;;;;5075123;28;20457;-66
2023/03/12 09:39:49;;;;;;;6.07;5.47;;;3.50;99.90;;;;;;5074932;28;20465;-65
2023/03/12 09:42:24;;;;;;;11.90;4.90;;;3.70;1.00;;;;;;5076019;28;20477;-66
2023/03/12 09:44:52;;;;;;;6.33;5.07;;;3.80;1.00;;;;;;5077723;28;20492;-63
2023/03/12 09:47:28;;;;;;;6.10;4.60;;;3.80;1.00;;;;;;5078390;28;20458;-63
2023/03/12 09:49:59;;;;;;;6.83;4.90;;;3.70;1.00;;;;;;5078701;28;20695;-64
2023/03/12 09:52:31;;;;;;;6.10;4.73;;;3.80;1.00;;;;;;5077862;28;20451;-63
2023/03/12 09:55:03;;;;;;;5.73;5.13;;;3.90;1.00;;;;;;5075659;28;20465;-62
2023/03/12 09:57:30;;;;;;;10.03;5.20;;;3.80;1.00;;;;;;5076791;28;20461;-62
2023/03/12 09:59:57;;;;;;;5.30;4.10;;;3.90;23.40;;;;;;5075207;28;20901;-63
2023/03/12 10:02:52;;;;;;;5.57;4.13;;;3.90;90.20;;;;;;5075529;28;20530;-62
2023/03/12 10:05:31;;;;;;;8.43;6.27;;;4.00;99.90;;;;;;5075586;28;20462;-61
2023/03/12 10:08:02;;;;;;;8.30;6.30;;;4.10;99.90;;;;;;5075311;28;20461;-63
2023/03/12 10:10:47;;;;;;;5.10;4.60;;;4.10;99.90;;;;;;5076494;28;20461;-63
2023/03/12 10:13:24;;;;;;;8.13;4.77;;;4.10;1.00;;;;;;5076043;28;20460;-63
2023/03/12 10:16:05;;;;;;;7.70;5.07;;;4.10;1.00;;;;;;5076472;28;20453;-63
2023/03/12 10:18:46;;;;;;;5.07;3.80;;;4.00;99.90;;;;;;5075169;28;20492;-62
2023/03/12 10:21:21;;;;;;;12.03;8.27;;;4.00;99.90;;;;;;5076160;28;20510;-61
2023/03/12 10:24:04;;;;;;;5.30;4.80;;;4.10;1.00;;;;;;5075463;28;20940;-63
2023/03/12 10:26:38;;;;;;;9.20;4.67;;;4.20;1.00;;;;;;5076872;28;20473;-64
2023/03/12 10:29:13;;;;;;;8.30;6.10;;;4.20;95.70;;;;;;5071366;28;20473;-64
2023/03/12 10:31:49;;;;;;;6.37;5.70;;;4.20;99.90;;;;;;5073579;28;20457;-64
2023/03/12 10:34:25;;;;;;;6.03;4.50;;;4.30;99.90;;;;;;5077687;28;20449;-64
2023/03/12 10:36:54;;;;;;;5.37;4.10;;;4.30;99.90;;;;;;5078426;28;20453;-64
2023/03/12 10:39:21;;;;;;;4.83;4.20;;;4.30;99.90;;;;;;5075298;28;20500;-64
2023/03/12 10:41:49;;;;;;;6.30;5.40;;;4.40;99.90;;;;;;5077453;28;20516;-65
2023/03/12 10:44:21;;;;;;;6.17;5.57;;;4.50;99.90;;;;;;5076836;28;20482;-64
2023/03/12 10:46:59;;;;;;;6.20;4.80;;;4.50;99.90;;;;;;5076348;28;20459;-64
2023/03/12 10:49:31;;;;;;;7.20;4.87;;;4.50;99.90;;;;;;5075688;28;20554;-65
2023/03/12 10:52:00;;;;;;;4.90;4.13;;;4.60;99.90;;;;;;5076398;28;20457;-65
2023/03/12 10:54:31;;;;;;;4.77;4.27;;;4.70;99.90;;;;;;5077412;28;20817;-66
2023/03/12 10:56:58;;;;;;;6.13;5.53;;;4.70;99.90;;;;;;5078119;28;20457;-65
2023/03/12 10:59:31;;;;;;;5.93;4.53;;;4.70;99.90;;;;;;5077277;28;20483;-65
2023/03/12 11:02:01;;;;;;;5.80;4.83;;;4.80;99.90;;;;;;5077456;28;20837;-66
2023/03/12 11:04:31;;;;;;;5.17;4.60;;;4.80;99.90;;;;;;5074498;28;20587;-65
2023/03/12 11:07:21;;;;;;;5.23;4.73;;;4.90;99.90;;;;;;5077151;28;20465;-65
2023/03/12 11:10:17;;;;;;;4.60;4.07;;;5.00;99.90;;;;;;5075172;28;20882;-65
2023/03/12 11:13:00;;;;;;;8.10;4.63;;;5.00;99.90;;;;;;5072213;28;20774;-65
2023/03/12 11:15:31;;;;;;;5.13;4.40;;;5.20;99.90;;;;;;5073031;28;20759;-65
2023/03/12 11:18:21;;;;;;;4.70;4.20;;;5.20;99.90;;;;;;5075601;28;20493;-64
2023/03/12 11:20:52;;;;;;;5.50;4.00;;;5.40;99.90;;;;;;5073681;28;20458;-64
2023/03/12 11:23:24;;;;;;;5.13;4.63;;;5.50;99.90;;;;;;5076030;28;20513;-65
2023/03/12 11:25:57;;;;;;;4.30;3.90;;;5.60;99.90;;;;;;5073976;28;20918;-64
2023/03/12 11:28:29;;;;;;;6.10;4.80;;;5.60;99.90;;;;;;5075100;28;20461;-65
2023/03/12 11:30:58;;;;;;;4.33;3.93;;;5.70;99.90;;;;;;5076892;28;20783;-64
2023/03/12 11:33:25;;;;;;;5.60;4.73;;;5.70;99.90;;;;;;5076611;28;20908;-66
2023/03/12 11:36:04;;;;;;;5.17;4.67;;;5.80;99.90;;;;;;5075126;28;20458;-65
2023/03/12 11:38:38;;;;;;;5.30;4.73;;;5.90;99.90;;;;;;5074432;28;20981;-65
2023/03/12 11:41:19;;;;;;;4.47;4.07;;;6.10;99.90;;;;;;5075134;28;20461;-65
2023/03/12 12:14:19;;;;;;;26.60;14.77;;;7.40;99.90;;;;;;5077121;28;20408;-64
2023/03/12 12:17:08;;;;;;;15.40;9.20;;;7.40;99.90;;;;;;5076506;28;20469;-64
2023/03/12 12:19:54;;;;;;;7.17;4.97;;;7.40;99.90;;;;;;5076700;28;20487;-64
2023/03/12 12:22:35;;;;;;;9.97;6.70;;;7.30;99.90;;;;;;5077265;28;20457;-64
2023/03/12 12:25:31;;;;;;;8.03;5.97;;;7.40;99.90;;;;;;5077308;28;20453;-63
2023/03/12 12:28:23;;;;;;;7.63;5.33;;;7.30;99.90;;;;;;5075256;28;20457;-64
2023/03/12 12:31:12;;;;;;;5.60;5.10;;;7.20;99.90;;;;;;5058789;28;20466;-64
2023/03/12 12:33:55;;;;;;;6.30;5.63;;;7.20;99.90;;;;;;5056927;28;20461;-65
2023/03/12 12:36:26;;;;;;;6.70;5.50;;;7.30;99.90;;;;;;5068897;28;20462;-65
2023/03/12 12:39:00;;;;;;;5.20;4.70;;;7.30;99.90;;;;;;5077034;28;20453;-65
2023/03/12 12:41:32;;;;;;;7.17;5.67;;;7.30;99.90;;;;;;5076510;28;20461;-64
2023/03/12 12:44:02;;;;;;;7.10;5.20;;;7.40;99.90;;;;;;5076880;28;20508;-64
2023/03/12 12:46:34;;;;;;;6.80;6.10;;;7.40;99.90;;;;;;5076912;28;20461;-65
2023/03/12 12:49:04;;;;;;;6.63;5.93;;;7.50;99.90;;;;;;5076748;28;20849;-65
2023/03/12 12:51:36;;;;;;;7.00;6.17;;;7.50;99.90;;;;;;5075057;28;20519;-65
2023/03/12 12:54:11;;;;;;;9.53;6.90;;;7.50;99.90;;;;;;5075793;28;20467;-65
2023/03/12 12:56:48;;;;;;;7.23;5.30;;;7.60;99.90;;;;;;5075902;28;20500;-65
2023/03/12 12:59:26;;;;;;;5.90;5.30;;;7.70;99.90;;;;;;5077241;28;20555;-65
2023/03/12 13:01:57;;;;;;;6.37;5.13;;;7.70;99.90;;;;;;5075810;28;20461;-64
2023/03/12 13:04:26;;;;;;;7.50;6.43;;;7.60;99.90;;;;;;5076091;28;20508;-63
2023/03/12 13:07:00;;;;;;;14.10;7.67;;;7.80;99.90;;;;;;5076874;28;20472;-64
2023/03/12 13:09:43;;;;;;;16.30;10.57;;;7.90;99.90;;;;;;5075676;28;20461;-65
2023/03/12 13:12:18;;;;;;;15.67;12.03;;;8.10;99.90;;;;;;5075564;28;20476;-65
2023/03/12 13:14:46;;;;;;;23.10;13.30;;;8.30;99.90;;;;;;5077035;28;20452;-65
2023/03/12 13:17:29;;;;;;;20.40;14.53;;;8.40;99.90;;;;;;5080210;28;20468;-65
2023/03/12 13:20:16;;;;;;;25.63;15.57;;;8.60;99.90;;;;;;5080231;28;20794;-65
2023/03/12 13:23:08;;;;;;;22.23;14.13;;;8.90;99.90;;;;;;5040747;28;20478;-65
2023/03/12 13:25:53;;;;;;;25.37;13.57;;;9.20;99.90;;;;;;5072702;28;20457;-65
2023/03/12 13:28:34;;;;;;;23.93;13.13;;;9.20;99.90;;;;;;5081044;28;20472;-64
2023/03/12 13:31:01;;;;;;;32.20;14.70;;;9.30;99.90;;;;;;5081209;28;20514;-64
2023/03/12 13:33:43;;;;;;;22.90;14.63;;;9.30;99.90;;;;;;5081538;28;20456;-64
2023/03/12 13:36:23;;;;;;;25.53;14.43;;;9.40;99.90;;;;;;5080285;28;20515;-64
2023/03/12 13:38:56;;;;;;;28.70;13.60;;;9.40;99.90;;;;;;5081297;28;20492;-65
2023/03/12 13:41:35;;;;;;;32.63;14.03;;;9.50;99.90;;;;;;5080781;28;20465;-65
2023/03/12 13:44:31;;;;;;;25.17;14.67;;;9.40;99.90;;;;;;5080633;28;20827;-65